sensor_id;sensor_type;location;lat;lon;timestamp;P1;durP1;ratioP1;P2;durP2;ratioP2
45940;SDS011;31858;46.008;8.978;2024-03-23T01:02:59;64.63;;;42.30;;
45940;SDS011;31858;46.008;8.978;2024-03-23T01:13:00;63.13;;;40.03;;
45940;SDS011;31858;46.008;8.978;2024-03-23T01:23:03;66.63;;;40.88;;
45940;SDS011;31858;46.008;8.978;2024-03-23T01:33:05;66.85;;;40.75;;
45940;SDS011;31858;46.008;8.978;2024-03-23T01:43:08;63.58;;;39.63;;
45940;SDS011;31858;46.008;8.978;2024-03-23T01:53:10;63.97;;;39.33;;
45940;SDS011;31858;46.008;8.978;2024-03-23T02:03:25;55.65;;;34.78;;
45940;SDS011;31858;46.008;8.978;2024-03-23T02:13:28;52.67;;;35.92;;
45940;SDS011;31858;46.008;8.978;2024-03-23T02:23:31;56.13;;;36.33;;
45940;SDS011;31858;46.008;8.978;2024-03-23T02:33:32;64.63;;;41.55;;
45940;SDS011;31858;46.008;8.978;2024-03-23T02:53:42;61.72;;;39.38;;
45940;SDS011;31858;46.008;8.978;2024-03-23T03:03:43;60.67;;;38.50;;
45940;SDS011;31858;46.008;8.978;2024-03-23T03:13:46;55.65;;;35.42;;
45940;SDS011;31858;46.008;8.978;2024-03-23T03:23:48;62.92;;;36.88;;
45940;SDS011;31858;46.008;8.978;2024-03-23T03:33:51;52.25;;;33.65;;
45940;SDS011;31858;46.008;8.978;2024-03-23T03:43:53;50.70;;;33.03;;
45940;SDS011;31858;46.008;8.978;2024-03-23T03:53:56;54.15;;;34.05;;
45940;SDS011;31858;46.008;8.978;2024-03-23T04:03:58;54.65;;;35.85;;
45940;SDS011;31858;46.008;8.978;2024-03-23T04:14:01;50.30;;;33.83;;
45940;SDS011;31858;46.008;8.978;2024-03-23T04:24:03;58.03;;;36.92;;
45940;SDS011;31858;46.008;8.978;2024-03-23T04:34:06;52.60;;;33.75;;
45940;SDS011;31858;46.008;8.978;2024-03-23T04:44:08;51.83;;;34.78;;
45940;SDS011;31858;46.008;8.978;2024-03-23T04:54:11;53.58;;;35.28;;
45940;SDS011;31858;46.008;8.978;2024-03-23T05:04:13;47.50;;;31.67;;
45940;SDS011;31858;46.008;8.978;2024-03-23T05:14:16;47.22;;;31.67;;
45940;SDS011;31858;46.008;8.978;2024-03-23T05:24:17;51.05;;;32.22;;
45940;SDS011;31858;46.008;8.978;2024-03-23T05:34:20;47.80;;;31.50;;
45940;SDS011;31858;46.008;8.978;2024-03-23T05:44:22;50.17;;;32.05;;
45940;SDS011;31858;46.008;8.978;2024-03-23T05:54:25;51.38;;;32.75;;
45940;SDS011;31858;46.008;8.978;2024-03-23T06:04:26;52.88;;;33.30;;
45940;SDS011;31858;46.008;8.978;2024-03-23T06:14:29;49.13;;;30.60;;
45940;SDS011;31858;46.008;8.978;2024-03-23T06:24:31;39.17;;;27.23;;
45940;SDS011;31858;46.008;8.978;2024-03-23T06:34:34;42.70;;;27.92;;
45940;SDS011;31858;46.008;8.978;2024-03-23T06:44:35;42.50;;;28.15;;
45940;SDS011;31858;46.008;8.978;2024-03-23T06:54:38;40.83;;;27.63;;
45940;SDS011;31858;46.008;8.978;2024-03-23T07:04:40;34.67;;;24.35;;
45940;SDS011;31858;46.008;8.978;2024-03-23T07:14:43;38.70;;;26.02;;
45940;SDS011;31858;46.008;8.978;2024-03-23T07:24:45;41.95;;;28.27;;
45940;SDS011;31858;46.008;8.978;2024-03-23T07:34:48;36.53;;;26.15;;
45940;SDS011;31858;46.008;8.978;2024-03-23T07:44:50;43.05;;;29.27;;
45940;SDS011;31858;46.008;8.978;2024-03-23T07:54:52;58.38;;;37.35;;
45940;SDS011;31858;46.008;8.978;2024-03-23T08:04:54;62.95;;;39.15;;
45940;SDS011;31858;46.008;8.978;2024-03-23T08:14:57;68.55;;;41.88;;
45940;SDS011;31858;46.008;8.978;2024-03-23T08:24:58;64.88;;;40.65;;
45940;SDS011;31858;46.008;8.978;2024-03-23T08:35:01;81.18;;;47.47;;
45940;SDS011;31858;46.008;8.978;2024-03-23T08:45:03;76.50;;;46.22;;
45940;SDS011;31858;46.008;8.978;2024-03-23T08:55:09;77.57;;;46.70;;
45940;SDS011;31858;46.008;8.978;2024-03-23T09:05:10;60.95;;;40.75;;
45940;SDS011;31858;46.008;8.978;2024-03-23T09:15:13;68.90;;;44.80;;
45940;SDS011;31858;46.008;8.978;2024-03-23T09:25:15;72.70;;;46.00;;
45940;SDS011;31858;46.008;8.978;2024-03-23T09:35:18;66.57;;;42.75;;
45940;SDS011;31858;46.008;8.978;2024-03-23T09:45:20;59.47;;;39.78;;
45940;SDS011;31858;46.008;8.978;2024-03-23T09:55:24;63.22;;;40.72;;
45940;SDS011;31858;46.008;8.978;2024-03-23T10:05:26;75.13;;;46.75;;
45940;SDS011;31858;46.008;8.978;2024-03-23T10:15:29;65.93;;;42.63;;
45940;SDS011;31858;46.008;8.978;2024-03-23T10:25:30;62.17;;;41.53;;
45940;SDS011;31858;46.008;8.978;2024-03-23T10:35:34;60.88;;;39.60;;
45940;SDS011;31858;46.008;8.978;2024-03-23T10:45:36;60.63;;;39.08;;
45940;SDS011;31858;46.008;8.978;2024-03-23T10:55:39;55.10;;;36.47;;
45940;SDS011;31858;46.008;8.978;2024-03-23T11:05:46;52.33;;;34.60;;
45940;SDS011;31858;46.008;8.978;2024-03-23T11:15:49;48.72;;;33.95;;
45940;SDS011;31858;46.008;8.978;2024-03-23T11:25:50;45.83;;;30.20;;
45940;SDS011;31858;46.008;8.978;2024-03-23T11:35:53;41.60;;;28.75;;
45940;SDS011;31858;46.008;8.978;2024-03-23T11:45:55;37.55;;;27.25;;
45940;SDS011;31858;46.008;8.978;2024-03-23T11:55:59;33.47;;;24.27;;
45940;SDS011;31858;46.008;8.978;2024-03-23T12:06:01;29.40;;;21.15;;
45940;SDS011;31858;46.008;8.978;2024-03-23T12:16:10;26.25;;;20.15;;
45940;SDS011;31858;46.008;8.978;2024-03-23T12:26:13;32.70;;;23.20;;
45940;SDS011;31858;46.008;8.978;2024-03-23T12:36:17;35.70;;;24.70;;
45940;SDS011;31858;46.008;8.978;2024-03-23T12:46:18;34.92;;;26.15;;
45940;SDS011;31858;46.008;8.978;2024-03-23T12:56:21;42.90;;;28.83;;
45940;SDS011;31858;46.008;8.978;2024-03-23T13:06:23;40.55;;;27.50;;
45940;SDS011;31858;46.008;8.978;2024-03-23T13:16:26;33.03;;;23.58;;
45940;SDS011;31858;46.008;8.978;2024-03-23T13:26:27;27.95;;;22.20;;
45940;SDS011;31858;46.008;8.978;2024-03-23T13:36:30;31.30;;;21.33;;
45940;SDS011;31858;46.008;8.978;2024-03-23T13:46:32;26.83;;;19.73;;
45940;SDS011;31858;46.008;8.978;2024-03-23T13:56:35;26.17;;;20.30;;
45940;SDS011;31858;46.008;8.978;2024-03-23T14:06:36;20.08;;;15.77;;
45940;SDS011;31858;46.008;8.978;2024-03-23T14:16:39;23.02;;;18.60;;
45940;SDS011;31858;46.008;8.978;2024-03-23T14:26:42;16.92;;;11.60;;
45940;SDS011;31858;46.008;8.978;2024-03-23T14:36:45;13.45;;;9.10;;
45940;SDS011;31858;46.008;8.978;2024-03-23T14:46:46;14.98;;;9.18;;
45940;SDS011;31858;46.008;8.978;2024-03-23T14:56:49;12.77;;;8.88;;
45940;SDS011;31858;46.008;8.978;2024-03-23T15:06:51;12.93;;;9.48;;
45940;SDS011;31858;46.008;8.978;2024-03-23T15:16:54;12.57;;;7.35;;
45940;SDS011;31858;46.008;8.978;2024-03-23T15:26:55;4.00;;;1.10;;
45940;SDS011;31858;46.008;8.978;2024-03-23T15:36:58;1.77;;;1.10;;
45940;SDS011;31858;46.008;8.978;2024-03-23T15:47:00;1.05;;;0.85;;
45940;SDS011;31858;46.008;8.978;2024-03-23T15:57:03;1.45;;;0.98;;
45940;SDS011;31858;46.008;8.978;2024-03-23T16:07:05;1.98;;;0.70;;
45940;SDS011;31858;46.008;8.978;2024-03-23T16:17:08;2.53;;;1.40;;
45940;SDS011;31858;46.008;8.978;2024-03-23T16:27:09;1.20;;;0.80;;
45940;SDS011;31858;46.008;8.978;2024-03-23T16:37:12;2.55;;;1.10;;
45940;SDS011;31858;46.008;8.978;2024-03-23T16:47:14;1.70;;;0.90;;
45940;SDS011;31858;46.008;8.978;2024-03-23T16:57:17;2.33;;;0.80;;
45940;SDS011;31858;46.008;8.978;2024-03-23T17:07:18;0.77;;;0.77;;
45940;SDS011;31858;46.008;8.978;2024-03-23T17:17:21;3.38;;;0.90;;
45940;SDS011;31858;46.008;8.978;2024-03-23T17:27:23;0.93;;;0.68;;
45940;SDS011;31858;46.008;8.978;2024-03-23T17:37:25;0.50;;;0.50;;
45940;SDS011;31858;46.008;8.978;2024-03-23T17:47:27;1.38;;;0.40;;
45940;SDS011;31858;46.008;8.978;2024-03-23T17:57:30;4.45;;;0.80;;
45940;SDS011;31858;46.008;8.978;2024-03-23T18:07:32;3.10;;;0.88;;
45940;SDS011;31858;46.008;8.978;2024-03-23T18:17:35;1.85;;;1.13;;
45940;SDS011;31858;46.008;8.978;2024-03-23T18:27:37;2.25;;;0.88;;
45940;SDS011;31858;46.008;8.978;2024-03-23T18:37:40;0.73;;;0.50;;
45940;SDS011;31858;46.008;8.978;2024-03-23T18:47:41;2.75;;;0.88;;
45940;SDS011;31858;46.008;8.978;2024-03-23T18:57:44;1.17;;;0.70;;
45940;SDS011;31858;46.008;8.978;2024-03-23T19:07:46;0.63;;;0.63;;
45940;SDS011;31858;46.008;8.978;2024-03-23T19:17:48;1.85;;;0.85;;
45940;SDS011;31858;46.008;8.978;2024-03-23T19:27:50;1.55;;;0.88;;
45940;SDS011;31858;46.008;8.978;2024-03-23T19:37:53;1.73;;;0.77;;
45940;SDS011;31858;46.008;8.978;2024-03-23T19:47:55;3.25;;;0.75;;
45940;SDS011;31858;46.008;8.978;2024-03-23T19:57:58;0.90;;;0.60;;
45940;SDS011;31858;46.008;8.978;2024-03-23T20:08:00;1.00;;;0.70;;
45940;SDS011;31858;46.008;8.978;2024-03-23T20:18:04;1.10;;;0.77;;
45940;SDS011;31858;46.008;8.978;2024-03-23T20:28:05;1.40;;;0.50;;
45940;SDS011;31858;46.008;8.978;2024-03-23T20:38:08;0.98;;;0.82;;
45940;SDS011;31858;46.008;8.978;2024-03-23T20:48:10;3.30;;;1.33;;
45940;SDS011;31858;46.008;8.978;2024-03-23T20:58:14;1.55;;;0.68;;
45940;SDS011;31858;46.008;8.978;2024-03-23T21:08:15;2.90;;;0.88;;
45940;SDS011;31858;46.008;8.978;2024-03-23T21:18:18;1.63;;;0.80;;
45940;SDS011;31858;46.008;8.978;2024-03-23T21:28:20;1.85;;;1.00;;
45940;SDS011;31858;46.008;8.978;2024-03-23T21:38:23;0.75;;;0.73;;
45940;SDS011;31858;46.008;8.978;2024-03-23T21:48:26;1.95;;;0.65;;
45940;SDS011;31858;46.008;8.978;2024-03-23T21:58:31;1.67;;;0.85;;
45940;SDS011;31858;46.008;8.978;2024-03-23T22:08:32;3.25;;;0.70;;
45940;SDS011;31858;46.008;8.978;2024-03-23T22:18:35;1.80;;;0.82;;
45940;SDS011;31858;46.008;8.978;2024-03-23T22:28:37;0.40;;;0.40;;
45940;SDS011;31858;46.008;8.978;2024-03-23T22:38:40;0.57;;;0.57;;
45940;SDS011;31858;46.008;8.978;2024-03-23T22:48:41;0.50;;;0.50;;
45940;SDS011;31858;46.008;8.978;2024-03-23T22:58:44;0.80;;;0.55;;
45940;SDS011;31858;46.008;8.978;2024-03-23T23:08:46;2.28;;;0.63;;
45940;SDS011;31858;46.008;8.978;2024-03-23T23:18:49;1.00;;;0.85;;
45940;SDS011;31858;46.008;8.978;2024-03-23T23:28:51;0.50;;;0.50;;
45940;SDS011;31858;46.008;8.978;2024-03-23T23:38:53;0.77;;;0.50;;
45940;SDS011;31858;46.008;8.978;2024-03-23T23:48:55;0.95;;;0.50;;
45940;SDS011;31858;46.008;8.978;2024-03-23T23:58:58;1.23;;;0.60;;
